createdAt,value
2018-07-22T00:01:44.018Z,97.20
2018-07-22T00:04:12.223Z,97.30
2018-07-22T00:06:39.675Z,97.30
2018-07-22T00:09:07.879Z,97.40
2018-07-22T00:11:36.100Z,97.20
2018-07-22T00:14:04.363Z,97.20
2018-07-22T00:16:32.539Z,97.30
2018-07-22T00:19:00.748Z,97.30
2018-07-22T00:21:28.962Z,97.40
2018-07-22T00:23:57.175Z,97.40
2018-07-22T00:26:25.388Z,97.40
2018-07-22T00:28:53.599Z,97.40
2018-07-22T00:31:21.818Z,97.20
2018-07-22T00:33:50.032Z,96.80
2018-07-22T00:36:18.254Z,96.70
2018-07-22T00:38:46.467Z,96.70
2018-07-22T00:41:14.689Z,96.40
2018-07-22T00:43:42.904Z,96.10
2018-07-22T00:46:11.121Z,95.80
2018-07-22T00:48:39.326Z,95.70
2018-07-22T00:51:07.547Z,95.90
2018-07-22T00:53:35.759Z,95.90
2018-07-22T00:56:03.974Z,95.90
2018-07-22T00:58:32.192Z,96.00
2018-07-22T01:01:00.411Z,95.90
2018-07-22T01:03:28.615Z,96.00
2018-07-22T01:05:56.843Z,95.90
2018-07-22T01:08:25.051Z,95.90
2018-07-22T01:10:53.271Z,95.90
2018-07-22T01:13:21.487Z,95.80
2018-07-22T01:15:49.703Z,95.80
2018-07-22T01:18:17.912Z,95.80
2018-07-22T01:20:46.131Z,95.90
2018-07-22T01:23:14.345Z,96.00
2018-07-22T01:25:42.568Z,96.20
2018-07-22T01:28:10.776Z,96.20
2018-07-22T01:30:38.998Z,96.30
2018-07-22T01:33:07.202Z,96.40
2018-07-22T01:35:35.424Z,96.50
2018-07-22T01:38:03.639Z,96.60
2018-07-22T01:40:31.861Z,96.60
2018-07-22T01:43:00.081Z,96.60
2018-07-22T01:45:28.304Z,96.60
2018-07-22T01:47:56.516Z,96.60
2018-07-22T01:50:24.724Z,97.00
2018-07-22T01:52:52.949Z,96.60
2018-07-22T01:55:21.154Z,96.60
2018-07-22T01:57:49.372Z,96.60
2018-07-22T02:00:17.581Z,96.60
2018-07-22T02:02:45.796Z,96.50
2018-07-22T02:05:14.011Z,96.50
2018-07-22T02:07:42.236Z,96.50
2018-07-22T02:10:10.452Z,96.60
2018-07-22T02:12:38.672Z,96.60
2018-07-22T02:15:06.892Z,96.70
2018-07-22T02:17:35.111Z,96.50
2018-07-22T02:20:03.316Z,96.50
2018-07-22T02:22:31.546Z,96.60
2018-07-22T02:24:59.755Z,96.40
2018-07-22T02:27:27.979Z,96.50
2018-07-22T02:29:56.206Z,96.60
2018-07-22T02:32:24.427Z,96.70
2018-07-22T02:34:52.628Z,96.60
2018-07-22T02:37:20.849Z,96.50
2018-07-22T02:39:48.300Z,96.50
2018-07-22T02:42:16.517Z,96.40
2018-07-22T02:44:44.733Z,96.50
2018-07-22T02:47:12.951Z,96.50
2018-07-22T02:49:40.391Z,96.50
2018-07-22T02:52:08.613Z,96.40
2018-07-22T02:54:36.837Z,96.50
2018-07-22T02:57:05.056Z,96.60
2018-07-22T02:59:33.271Z,96.70
2018-07-22T03:02:01.489Z,96.70
2018-07-22T03:04:29.705Z,96.60
2018-07-22T03:06:57.920Z,96.40
2018-07-22T03:09:26.130Z,96.30
2018-07-22T03:11:54.356Z,96.20
2018-07-22T03:14:22.563Z,96.30
2018-07-22T03:16:50.797Z,96.40
2018-07-22T03:19:19.021Z,96.20
2018-07-22T03:21:47.228Z,96.20
2018-07-22T03:24:15.452Z,96.20
2018-07-22T03:26:43.668Z,96.30
2018-07-22T03:29:11.111Z,96.30
2018-07-22T03:31:39.327Z,96.30
2018-07-22T03:34:06.771Z,96.30
2018-07-22T03:36:34.983Z,96.60
2018-07-22T03:39:03.196Z,96.80
2018-07-22T03:41:31.418Z,96.60
2018-07-22T03:43:59.635Z,96.50
2018-07-22T03:46:27.857Z,96.60
2018-07-22T03:48:56.068Z,96.80
2018-07-22T03:51:24.283Z,96.80
2018-07-22T03:53:52.495Z,96.80
2018-07-22T03:56:20.718Z,96.80
2018-07-22T03:58:48.931Z,96.80
2018-07-22T04:01:17.147Z,97.00
2018-07-22T04:03:45.359Z,97.10
2018-07-22T04:06:13.569Z,97.10
2018-07-22T04:08:41.784Z,97.10
2018-07-22T04:11:09.996Z,97.00
2018-07-22T04:13:38.211Z,97.00
2018-07-22T04:16:06.429Z,96.80
2018-07-22T04:18:34.643Z,96.80
2018-07-22T04:21:02.863Z,96.80
2018-07-22T04:23:31.086Z,96.80
2018-07-22T04:25:59.299Z,96.70
2018-07-22T04:28:27.515Z,96.60
2018-07-22T04:30:55.722Z,96.60
2018-07-22T04:33:23.946Z,96.50
2018-07-22T04:35:52.156Z,96.90
2018-07-22T04:38:19.599Z,96.60
2018-07-22T04:40:47.859Z,96.60
2018-07-22T04:43:16.039Z,96.60
2018-07-22T04:45:44.252Z,96.40
2018-07-22T04:48:11.699Z,96.40
2018-07-22T04:50:39.928Z,96.50
2018-07-22T04:53:08.140Z,96.30
2018-07-22T04:55:36.351Z,96.30
2018-07-22T04:58:04.577Z,96.50
2018-07-22T05:00:32.784Z,96.40
2018-07-22T05:03:01.003Z,96.30
2018-07-22T05:05:29.211Z,96.20
2018-07-22T05:07:57.432Z,96.20
2018-07-22T05:10:24.884Z,96.20
2018-07-22T05:12:53.111Z,96.10
2018-07-22T05:15:21.314Z,96.00
2018-07-22T05:17:49.542Z,95.90
2018-07-22T05:20:17.755Z,95.80
2018-07-22T05:22:45.977Z,95.80
2018-07-22T05:25:14.188Z,95.40
2018-07-22T05:27:42.407Z,95.30
2018-07-22T05:30:10.625Z,95.20
2018-07-22T05:32:38.852Z,95.20
2018-07-22T05:35:07.062Z,95.00
2018-07-22T05:37:35.269Z,94.80
2018-07-22T05:40:03.483Z,94.80
2018-07-22T05:42:31.694Z,94.70
2018-07-22T05:44:59.917Z,94.60
2018-07-22T05:47:28.127Z,94.40
2018-07-22T05:49:56.343Z,94.30
2018-07-22T05:52:24.575Z,94.10
2018-07-22T05:54:52.791Z,94.10
2018-07-22T05:57:20.240Z,94.10
2018-07-22T05:59:47.688Z,93.90
2018-07-22T06:02:15.904Z,93.80
2018-07-22T06:04:44.120Z,93.70
2018-07-22T06:07:12.327Z,93.00
2018-07-22T06:09:40.551Z,92.50
2018-07-22T06:12:08.780Z,91.70
2018-07-22T06:14:36.979Z,91.00
2018-07-22T06:17:05.202Z,90.90
2018-07-22T06:19:33.419Z,90.00
2018-07-22T06:22:01.642Z,90.00
2018-07-22T06:24:29.855Z,87.70
2018-07-22T06:26:58.075Z,86.20
2018-07-22T06:29:26.283Z,85.30
2018-07-22T06:31:54.494Z,83.30
2018-07-22T06:34:22.720Z,81.60
2018-07-22T06:36:50.937Z,81.10
2018-07-22T06:39:19.148Z,79.50
2018-07-22T06:41:47.355Z,79.50
2018-07-22T06:44:15.585Z,78.70
2018-07-22T06:46:43.856Z,78.10
2018-07-22T06:49:12.022Z,77.40
2018-07-22T06:51:40.255Z,76.20
2018-07-22T06:54:08.472Z,75.30
2018-07-22T06:56:36.686Z,74.40
2018-07-22T06:59:04.900Z,73.90
2018-07-22T07:01:33.132Z,71.70
2018-07-22T07:04:01.348Z,70.80
2018-07-22T07:06:29.556Z,70.40
2018-07-22T07:08:57.762Z,70.30
2018-07-22T07:11:26.014Z,69.50
2018-07-22T07:13:54.227Z,68.30
2018-07-22T07:16:22.431Z,66.60
2018-07-22T07:18:50.659Z,63.90
2018-07-22T07:21:18.862Z,63.50
2018-07-22T07:23:46.311Z,63.50
2018-07-22T07:26:13.763Z,62.70
2018-07-22T07:28:41.976Z,61.10
2018-07-22T07:31:10.201Z,59.90
2018-07-22T07:33:38.429Z,58.80
2018-07-22T07:36:06.627Z,58.40
2018-07-22T07:38:34.836Z,58.00
2018-07-22T07:41:03.043Z,57.60
2018-07-22T07:43:31.263Z,57.30
2018-07-22T07:45:59.485Z,56.50
2018-07-22T07:48:27.696Z,56.20
2018-07-22T07:50:55.912Z,53.60
2018-07-22T07:53:24.138Z,54.20
2018-07-22T07:55:52.343Z,54.80
2018-07-22T07:58:20.555Z,54.40
2018-07-22T08:00:48.775Z,54.60
2018-07-22T08:03:16.983Z,54.80
2018-07-22T08:05:45.207Z,54.20
2018-07-22T08:08:13.418Z,53.80
2018-07-22T08:10:41.644Z,54.00
2018-07-22T08:13:09.092Z,53.90
2018-07-22T08:15:37.307Z,52.50
2018-07-22T08:18:05.525Z,52.40
2018-07-22T08:20:33.745Z,52.20
2018-07-22T08:23:01.948Z,52.60
2018-07-22T08:25:30.169Z,51.10
2018-07-22T08:27:58.384Z,51.30
2018-07-22T08:30:26.648Z,51.30
2018-07-22T08:32:54.820Z,50.60
2018-07-22T08:35:23.039Z,50.80
2018-07-22T08:37:51.253Z,50.20
2018-07-22T08:40:19.479Z,48.70
2018-07-22T08:42:47.717Z,48.80
2018-07-22T08:45:15.933Z,49.70
2018-07-22T08:47:44.262Z,49.30
2018-07-22T08:50:12.420Z,49.50
2018-07-22T08:52:40.626Z,49.50
2018-07-22T08:55:09.044Z,49.10
2018-07-22T08:57:37.256Z,49.10
2018-07-22T09:00:04.704Z,49.00
2018-07-22T09:02:32.918Z,48.50
2018-07-22T09:05:01.189Z,48.10
2018-07-22T09:07:29.399Z,48.20
2018-07-22T09:09:56.861Z,48.20
2018-07-22T09:12:25.080Z,47.90
2018-07-22T09:14:53.308Z,47.60
2018-07-22T09:17:20.765Z,47.60
2018-07-22T09:19:48.993Z,47.40
2018-07-22T09:22:17.199Z,46.80
2018-07-22T09:24:44.653Z,46.80
2018-07-22T09:27:12.864Z,46.60
2018-07-22T09:29:41.075Z,45.70
2018-07-22T09:32:09.309Z,45.90
2018-07-22T09:34:37.521Z,45.90
2018-07-22T09:37:05.736Z,45.90
2018-07-22T09:39:33.953Z,44.70
2018-07-22T09:42:02.169Z,44.60
2018-07-22T09:44:30.389Z,44.60
2018-07-22T09:46:58.604Z,44.40
2018-07-22T09:49:26.056Z,44.40
2018-07-22T09:51:54.274Z,43.50
2018-07-22T09:54:22.476Z,44.40
2018-07-22T09:56:50.695Z,45.30
2018-07-22T09:59:19.072Z,44.20
2018-07-22T10:01:47.281Z,44.40
2018-07-22T10:04:15.487Z,44.20
2018-07-22T10:06:43.708Z,43.50
2018-07-22T10:09:11.161Z,43.40
2018-07-22T10:11:39.371Z,43.80
2018-07-22T10:14:07.597Z,43.80
2018-07-22T10:16:35.040Z,43.80
2018-07-22T10:19:03.261Z,42.70
2018-07-22T10:21:31.471Z,43.80
2018-07-22T10:23:59.685Z,43.50
2018-07-22T10:26:27.899Z,43.60
2018-07-22T10:28:56.122Z,43.30
2018-07-22T10:31:24.346Z,43.30
2018-07-22T10:33:52.596Z,42.70
2018-07-22T10:36:20.804Z,42.40
2018-07-22T10:38:49.010Z,42.40
2018-07-22T10:41:17.221Z,41.80
2018-07-22T10:43:45.435Z,41.40
2018-07-22T10:46:13.648Z,41.00
2018-07-22T10:48:41.872Z,40.50
2018-07-22T10:51:10.075Z,40.10
2018-07-22T10:53:38.304Z,39.70
2018-07-22T10:56:06.513Z,40.20
2018-07-22T10:58:34.725Z,41.30
2018-07-22T11:01:02.937Z,41.50
2018-07-22T11:03:31.147Z,40.10
2018-07-22T11:05:59.361Z,39.90
2018-07-22T11:08:27.575Z,39.60
2018-07-22T11:10:55.779Z,39.90
2018-07-22T11:13:24.001Z,40.10
2018-07-22T11:15:52.208Z,40.90
2018-07-22T11:18:20.419Z,40.30
2018-07-22T11:20:48.636Z,40.40
2018-07-22T11:23:16.860Z,39.30
2018-07-22T11:25:45.076Z,38.80
2018-07-22T11:28:13.287Z,39.50
2018-07-22T11:30:41.495Z,39.00
2018-07-22T11:33:09.716Z,38.60
2018-07-22T11:35:37.923Z,37.70
2018-07-22T11:38:06.153Z,37.30
2018-07-22T11:40:34.364Z,36.70
2018-07-22T11:43:02.585Z,37.80
2018-07-22T11:45:30.789Z,37.50
2018-07-22T11:47:59.016Z,37.10
2018-07-22T11:50:27.286Z,36.00
2018-07-22T11:52:55.457Z,36.00
2018-07-22T11:55:23.668Z,35.80
2018-07-22T11:57:51.882Z,36.10
2018-07-22T12:00:20.097Z,36.30
2018-07-22T12:02:48.307Z,36.40
2018-07-22T12:05:16.522Z,35.70
2018-07-22T12:07:44.009Z,35.70
2018-07-22T12:10:12.171Z,36.00
2018-07-22T12:12:40.388Z,35.90
2018-07-22T12:15:08.596Z,36.10
2018-07-22T12:17:36.062Z,36.10
2018-07-22T12:20:04.265Z,34.30
2018-07-22T12:22:32.476Z,33.40
2018-07-22T12:25:00.689Z,33.30
2018-07-22T12:27:28.917Z,33.90
2018-07-22T12:29:57.151Z,32.00
2018-07-22T12:32:25.361Z,31.50
2018-07-22T12:34:53.572Z,33.00
2018-07-22T12:37:21.015Z,33.40
2018-07-22T12:39:48.480Z,32.70
2018-07-22T12:42:16.696Z,32.80
2018-07-22T12:44:44.915Z,31.50
2018-07-22T12:47:12.360Z,31.50
2018-07-22T12:49:40.571Z,32.80
2018-07-22T12:52:08.828Z,33.00
2018-07-22T12:54:37.035Z,33.00
2018-07-22T12:57:05.252Z,32.30
2018-07-22T12:59:33.473Z,31.10
2018-07-22T13:02:01.693Z,31.00
2018-07-22T13:04:29.895Z,31.50
2018-07-22T13:06:58.202Z,32.70
2018-07-22T13:09:26.321Z,34.20
2018-07-22T13:11:54.531Z,33.20
2018-07-22T13:14:22.751Z,32.80
2018-07-22T13:16:50.959Z,32.60
2018-07-22T13:19:19.183Z,31.80
2018-07-22T13:21:47.389Z,32.00
2018-07-22T13:24:15.613Z,31.70
2018-07-22T13:26:43.815Z,31.20
2018-07-22T13:29:11.259Z,31.20
2018-07-22T13:31:39.463Z,31.30
2018-07-22T13:34:06.915Z,31.30
2018-07-22T13:36:35.129Z,32.00
2018-07-22T13:39:03.348Z,31.10
2018-07-22T13:41:31.560Z,30.60
2018-07-22T13:43:59.780Z,31.20
2018-07-22T13:46:27.989Z,29.60
2018-07-22T13:48:55.448Z,29.60
2018-07-22T13:51:23.659Z,30.50
2018-07-22T13:53:51.874Z,31.00
2018-07-22T13:56:20.096Z,30.90
2018-07-22T13:58:48.322Z,30.30
2018-07-22T14:01:16.549Z,29.60
2018-07-22T14:03:44.772Z,30.20
2018-07-22T14:06:12.980Z,29.90
2018-07-22T14:08:41.192Z,30.20
2018-07-22T14:11:09.392Z,29.50
2018-07-22T14:13:36.861Z,29.20
2018-07-22T14:16:05.068Z,30.00
2018-07-22T14:18:33.292Z,29.50
2018-07-22T14:21:01.505Z,29.40
2018-07-22T14:23:29.728Z,28.90
2018-07-22T14:25:57.956Z,28.50
2018-07-22T14:28:26.160Z,28.70
2018-07-22T14:30:54.371Z,29.20
2018-07-22T14:33:22.589Z,28.40
2018-07-22T14:35:50.805Z,29.00
2018-07-22T14:38:19.009Z,29.50
2018-07-22T14:40:47.308Z,30.00
2018-07-22T14:43:15.436Z,29.90
2018-07-22T14:45:43.651Z,30.30
2018-07-22T14:48:11.851Z,30.00
2018-07-22T14:50:40.068Z,30.60
2018-07-22T14:53:08.271Z,29.80
2018-07-22T14:55:35.724Z,29.80
2018-07-22T14:58:03.170Z,29.70
2018-07-22T15:00:31.390Z,29.80
2018-07-22T15:02:59.603Z,29.50
2018-07-22T15:05:27.807Z,29.70
2018-07-22T15:07:56.033Z,28.40
2018-07-22T15:10:23.499Z,28.40
2018-07-22T15:12:51.725Z,29.10
2018-07-22T15:15:19.932Z,29.10
2018-07-22T15:17:47.378Z,29.10
2018-07-22T15:20:15.591Z,30.90
2018-07-22T15:22:43.807Z,30.60
2018-07-22T15:25:11.256Z,30.60
2018-07-22T15:27:38.695Z,29.80
2018-07-22T15:30:06.911Z,28.80
2018-07-22T15:32:35.115Z,29.40
2018-07-22T15:35:03.339Z,29.00
2018-07-22T15:37:30.780Z,28.70
2018-07-22T15:39:59.001Z,28.60
2018-07-22T15:42:27.194Z,29.00
2018-07-22T15:44:55.416Z,29.10
2018-07-22T15:47:23.619Z,29.60
2018-07-22T15:49:51.827Z,30.30
2018-07-22T15:52:20.036Z,30.70
2018-07-22T15:54:48.282Z,30.30
2018-07-22T15:57:16.451Z,29.50
2018-07-22T15:59:44.673Z,29.80
2018-07-22T16:02:12.883Z,30.40
2018-07-22T16:04:40.325Z,30.50
2018-07-22T16:07:07.758Z,29.50
2018-07-22T16:09:35.971Z,29.50
2018-07-22T16:12:04.208Z,30.50
2018-07-22T16:14:32.423Z,30.00
2018-07-22T16:17:00.631Z,30.80
2018-07-22T16:19:28.840Z,31.60
2018-07-22T16:21:57.051Z,31.30
2018-07-22T16:24:24.491Z,31.20
2018-07-22T16:26:52.708Z,30.60
2018-07-22T16:29:20.915Z,30.60
2018-07-22T16:31:49.128Z,30.90
2018-07-22T16:34:17.337Z,30.40
2018-07-22T16:36:44.792Z,30.40
2018-07-22T16:39:13.004Z,30.70
2018-07-22T16:41:41.221Z,30.60
2018-07-22T16:44:09.447Z,31.00
2018-07-22T16:46:37.656Z,31.50
2018-07-22T16:49:05.863Z,31.90
2018-07-22T16:51:34.090Z,32.50
2018-07-22T16:54:02.289Z,33.20
2018-07-22T16:56:30.497Z,34.40
2018-07-22T16:58:58.695Z,35.60
2018-07-22T17:01:26.916Z,36.30
2018-07-22T17:03:55.120Z,36.70
2018-07-22T17:06:23.336Z,37.40
2018-07-22T17:08:51.545Z,37.90
2018-07-22T17:11:19.763Z,38.20
2018-07-22T17:13:47.971Z,37.70
2018-07-22T17:16:16.171Z,36.30
2018-07-22T17:18:44.407Z,35.10
2018-07-22T17:21:12.615Z,34.40
2018-07-22T17:23:40.824Z,34.10
2018-07-22T17:26:09.276Z,34.10
2018-07-22T17:28:37.528Z,35.20
2018-07-22T17:31:05.747Z,35.80
2018-07-22T17:33:33.901Z,36.40
2018-07-22T17:36:01.364Z,36.40
2018-07-22T17:38:29.564Z,38.00
2018-07-22T17:40:57.774Z,38.70
2018-07-22T17:43:26.000Z,39.10
2018-07-22T17:45:54.228Z,39.40
2018-07-22T17:48:21.662Z,39.40
2018-07-22T17:50:50.009Z,40.00
2018-07-22T17:53:18.215Z,40.50
2018-07-22T17:55:46.467Z,41.00
2018-07-22T17:58:14.681Z,41.30
2018-07-22T18:00:42.923Z,41.60
2018-07-22T18:03:11.130Z,41.80
2018-07-22T18:05:39.346Z,42.40
2018-07-22T18:08:07.544Z,43.60
2018-07-22T18:10:35.760Z,44.70
2018-07-22T18:13:03.436Z,44.70
2018-07-22T18:15:30.875Z,45.10
2018-07-22T18:17:58.351Z,45.20
2018-07-22T18:20:25.768Z,45.40
2018-07-22T18:22:53.987Z,46.60
2018-07-22T18:25:22.211Z,46.80
2018-07-22T18:27:50.444Z,46.60
2018-07-22T18:30:18.644Z,46.90
2018-07-22T18:32:46.859Z,47.10
2018-07-22T18:35:14.300Z,47.10
2018-07-22T18:37:42.524Z,47.40
2018-07-22T18:40:10.745Z,47.20
2018-07-22T18:42:38.952Z,47.20
2018-07-22T18:45:07.151Z,47.40
2018-07-22T18:47:34.624Z,47.70
2018-07-22T18:50:02.874Z,47.80
2018-07-22T18:52:31.088Z,48.00
2018-07-22T18:54:58.577Z,47.90
2018-07-22T18:57:26.788Z,48.90
2018-07-22T18:59:54.991Z,49.20
2018-07-22T19:02:23.207Z,49.70
2018-07-22T19:04:51.428Z,50.00
2018-07-22T19:07:19.668Z,50.70
2018-07-22T19:09:47.879Z,51.00
2018-07-22T19:12:16.100Z,51.30
2018-07-22T19:14:44.324Z,51.30
2018-07-22T19:17:12.581Z,51.40
2018-07-22T19:19:40.835Z,51.50
2018-07-22T19:22:09.017Z,51.30
2018-07-22T19:24:37.223Z,51.80
2018-07-22T19:27:05.447Z,52.40
2018-07-22T19:29:33.659Z,52.70
2018-07-22T19:32:01.866Z,53.10
2018-07-22T19:34:29.319Z,53.10
2018-07-22T19:36:57.557Z,54.10
2018-07-22T19:39:25.787Z,54.50
2018-07-22T19:41:54.024Z,55.00
2018-07-22T19:44:22.254Z,55.70
2018-07-22T19:46:50.477Z,56.20
2018-07-22T19:49:18.701Z,56.20
2018-07-22T19:51:46.919Z,56.20
2018-07-22T19:54:14.364Z,56.20
2018-07-22T19:56:42.596Z,56.50
2018-07-22T19:59:10.818Z,57.00
2018-07-22T20:01:39.028Z,57.30
2018-07-22T20:04:07.244Z,57.50
2018-07-22T20:06:35.452Z,57.90
2018-07-22T20:09:03.694Z,58.20
2018-07-22T20:11:31.898Z,58.90
2018-07-22T20:14:00.126Z,59.20
2018-07-22T20:16:28.323Z,59.40
2018-07-22T20:18:56.562Z,59.70
2018-07-22T20:21:24.772Z,60.10
2018-07-22T20:23:53.151Z,60.80
2018-07-22T20:26:21.218Z,61.40
2018-07-22T20:28:48.660Z,61.20
2018-07-22T20:31:16.868Z,61.70
2018-07-22T20:33:44.331Z,61.70
2018-07-22T20:36:12.615Z,62.30
2018-07-22T20:38:40.772Z,63.50
2018-07-22T20:41:08.971Z,64.40
2018-07-22T20:43:37.187Z,64.60
2018-07-22T20:46:05.404Z,64.70
2018-07-22T20:48:33.616Z,65.30
2018-07-22T20:51:01.843Z,65.40
2018-07-22T20:53:30.052Z,66.30
2018-07-22T20:55:58.264Z,66.70
2018-07-22T20:58:26.492Z,67.00
2018-07-22T21:00:54.699Z,67.20
2018-07-22T21:03:22.920Z,67.50
2018-07-22T21:05:51.127Z,67.80
2018-07-22T21:08:18.575Z,67.70
2018-07-22T21:10:46.802Z,68.50
2018-07-22T21:13:15.036Z,68.80
2018-07-22T21:15:43.261Z,69.30
2018-07-22T21:18:11.479Z,69.80
2018-07-22T21:20:39.697Z,69.60
2018-07-22T21:23:07.906Z,69.80
2018-07-22T21:25:36.127Z,69.70
2018-07-22T21:28:04.351Z,71.20
2018-07-22T21:30:32.566Z,70.60
2018-07-22T21:33:00.779Z,70.80
2018-07-22T21:35:28.999Z,71.10
2018-07-22T21:37:57.221Z,71.30
2018-07-22T21:40:24.689Z,71.30
2018-07-22T21:42:52.883Z,72.60
2018-07-22T21:45:21.098Z,72.90
2018-07-22T21:47:48.551Z,72.90
2018-07-22T21:50:16.773Z,73.90
2018-07-22T21:52:44.975Z,74.10
2018-07-22T21:55:12.427Z,74.10
2018-07-22T21:57:40.663Z,74.10
2018-07-22T22:00:08.884Z,74.60
2018-07-22T22:02:37.110Z,75.70
2018-07-22T22:05:05.340Z,74.80
2018-07-22T22:07:33.559Z,74.50
2018-07-22T22:10:01.874Z,74.90
2018-07-22T22:12:30.024Z,75.10
2018-07-22T22:14:58.246Z,75.40
2018-07-22T22:17:26.469Z,77.00
2018-07-22T22:19:54.688Z,76.90
2018-07-22T22:22:22.895Z,77.30
2018-07-22T22:24:51.127Z,77.30
2018-07-22T22:27:18.572Z,77.30
2018-07-22T22:29:46.831Z,76.60
2018-07-22T22:32:15.013Z,76.70
2018-07-22T22:34:43.223Z,77.00
2018-07-22T22:37:11.440Z,76.90
2018-07-22T22:39:39.656Z,77.20
2018-07-22T22:42:07.960Z,77.60
2018-07-22T22:44:36.211Z,78.10
2018-07-22T22:47:04.400Z,78.30
2018-07-22T22:49:32.616Z,78.70
2018-07-22T22:52:00.848Z,78.80
2018-07-22T22:54:29.062Z,78.80
2018-07-22T22:56:57.276Z,78.80
2018-07-22T22:59:25.500Z,78.50
2018-07-22T23:01:53.716Z,78.90
2018-07-22T23:04:21.935Z,78.90
2018-07-22T23:06:50.148Z,79.30
2018-07-22T23:09:18.366Z,79.60
2018-07-22T23:11:46.585Z,80.00
2018-07-22T23:14:14.808Z,80.50
2018-07-22T23:16:43.025Z,81.20
2018-07-22T23:19:11.252Z,80.80
2018-07-22T23:21:39.454Z,80.80
2018-07-22T23:24:07.675Z,81.20
2018-07-22T23:26:35.893Z,81.30
2018-07-22T23:29:04.119Z,81.40
2018-07-22T23:31:32.331Z,81.30
2018-07-22T23:34:00.560Z,81.40
2018-07-22T23:36:28.775Z,81.50
2018-07-22T23:38:56.992Z,81.50
2018-07-22T23:41:25.204Z,82.10
2018-07-22T23:43:52.672Z,81.90
2018-07-22T23:46:20.887Z,82.00
2018-07-22T23:48:48.336Z,82.00
2018-07-22T23:51:16.552Z,82.70
2018-07-22T23:53:43.999Z,82.70
2018-07-22T23:56:12.233Z,83.40
2018-07-22T23:58:40.435Z,83.60
